Terminal Aerodrome Forecast
Issued by NWS

Home | Current Version | Previous Version | Text Only | Print | Product List | Glossary On
Versions: 1 2 3 4 5 6 7 8 9 10 11 12 13 14 15 16 17 18 19 20 21 22
000
FTUS43 KJKL 291700 RRA
TAFSJS
TAF
KSJS 291742Z 2918/3018 25011G20KT P6SM BKN045
     FM292200 26009G18KT P6SM VCSH OVC025
     FM300000 28008G15KT P6SM VCSH OVC015
     FM300500 28007G15KT 6SM -SHSN OVC008
     FM301700 30008G16KT P6SM SCT020=

USA.gov is the U.S. government's official web portal to all federal, state and local government web resources and services.